Time;durP1;ratioP1;P1;durP2;ratioP2;P2;SDS_P1;SDS_P2;PMS_P1;PMS_P2;Temp;Humidity;BMP_temperature;BMP_pressure;BME280_temperature;BME280_humidity;BME280_pressure;Samples;Min_cycle;Max_cycle;Signal;HPM_P1;HPM_P2
2022/06/16 00:01:25;;;;;;;1.47;1.37;;;26.00;41.90;;;;;;5070506;28;20458;-85
2022/06/16 00:03:53;;;;;;;1.40;1.30;;;26.00;42.00;;;;;;5070501;28;20425;-84
2022/06/16 00:06:21;;;;;;;1.40;1.30;;;26.00;42.00;;;;;;5073496;28;20477;-86
2022/06/16 00:08:49;;;;;;;1.20;1.20;;;26.00;41.90;;;;;;5082118;28;20463;-87
2022/06/16 00:11:17;;;;;;;10.93;1.27;;;25.90;42.00;;;;;;5091344;28;20468;-86
2022/06/16 00:13:46;;;;;;;1.33;1.10;;;25.90;42.10;;;;;;5090180;28;20416;-87
2022/06/16 00:16:15;;;;;;;1.60;1.40;;;25.90;42.00;;;;;;5089733;28;20450;-87
2022/06/16 00:18:44;;;;;;;1.30;1.20;;;25.80;42.10;;;;;;5089609;28;20413;-85
2022/06/16 00:21:12;;;;;;;1.20;1.10;;;25.90;42.10;;;;;;5091387;28;20523;-86
2022/06/16 00:23:40;;;;;;;1.53;1.30;;;25.80;42.20;;;;;;5089099;28;20525;-86
2022/06/16 00:26:11;;;;;;;1.30;1.20;;;25.80;42.20;;;;;;5083504;28;20448;-87
2022/06/16 00:28:41;;;;;;;1.40;1.30;;;25.80;42.20;;;;;;5090999;28;20467;-85
2022/06/16 00:31:09;;;;;;;1.40;1.20;;;25.80;42.20;;;;;;5089203;28;20396;-85
2022/06/16 00:33:39;;;;;;;1.60;1.50;;;25.80;42.20;;;;;;5089753;28;20424;-85
2022/06/16 00:36:07;;;;;;;1.80;1.23;;;25.70;42.20;;;;;;5089549;28;20462;-86
2022/06/16 00:38:35;;;;;;;3.03;1.47;;;25.70;42.20;;;;;;5090070;28;20420;-86
2022/06/16 00:41:04;;;;;;;1.40;1.30;;;25.70;42.40;;;;;;5081703;28;20504;-86
2022/06/16 00:43:31;;;;;;;1.73;1.33;;;25.70;42.20;;;;;;5083138;28;20518;-86
2022/06/16 00:46:01;;;;;;;1.50;1.40;;;25.60;42.50;;;;;;5086434;28;20472;-85
2022/06/16 00:48:31;;;;;;;1.23;1.23;;;25.60;42.40;;;;;;5086563;28;20459;-85
2022/06/16 00:51:04;;;;;;;1.43;1.20;;;25.60;42.40;;;;;;5086184;28;20515;-85
2022/06/16 00:53:32;;;;;;;1.50;1.30;;;25.50;42.40;;;;;;5085917;28;20453;-84
2022/06/16 00:56:00;;;;;;;2.30;1.50;;;25.50;42.40;;;;;;5085005;28;20484;-85
2022/06/16 00:58:29;;;;;;;1.80;1.57;;;25.50;42.60;;;;;;5085383;28;20454;-85
2022/06/16 01:00:57;;;;;;;1.40;1.30;;;25.50;42.40;;;;;;5076348;28;20465;-85
2022/06/16 01:06:19;;;;;;;1.43;1.33;;;25.40;42.70;;;;;;5084730;28;20457;-85
2022/06/16 01:08:47;;;;;;;2.40;1.50;;;25.40;42.50;;;;;;5084729;28;20447;-85
2022/06/16 01:13:41;;;;;;;1.40;1.30;;;25.40;42.60;;;;;;5085744;28;20525;-84
2022/06/16 01:14:14;;;;;;;1.53;1.27;;;25.30;42.70;;;;;;5084625;28;20879;-85
2022/06/16 01:16:45;;;;;;;2.23;1.57;;;25.30;42.70;;;;;;5083972;28;20449;-84
2022/06/16 01:19:27;;;;;;;5.23;1.43;;;25.30;42.60;;;;;;5078764;28;20443;-85
2022/06/16 01:21:58;;;;;;;1.70;1.60;;;25.30;42.60;;;;;;5084995;28;20444;-87
2022/06/16 01:24:54;;;;;;;1.40;1.30;;;25.20;42.70;;;;;;5084119;28;20502;-85
2022/06/16 01:27:36;;;;;;;1.63;1.40;;;25.20;42.70;;;;;;5066645;28;20450;-85
2022/06/16 01:30:06;;;;;;;2.57;1.60;;;25.20;42.80;;;;;;5084687;28;20488;-85
2022/06/16 01:32:40;;;;;;;2.60;1.30;;;25.20;42.90;;;;;;5083522;28;20476;-86
2022/06/16 01:35:11;;;;;;;1.27;1.17;;;25.10;42.80;;;;;;5076130;28;20505;-85
2022/06/16 01:37:43;;;;;;;2.30;1.37;;;25.10;42.90;;;;;;5083709;28;20443;-85
2022/06/16 01:40:14;;;;;;;2.60;1.67;;;25.10;42.90;;;;;;5083651;28;20477;-84
2022/06/16 01:42:47;;;;;;;1.60;1.50;;;25.10;43.10;;;;;;5084625;28;20433;-87
2022/06/16 01:45:19;;;;;;;2.00;1.90;;;25.00;42.80;;;;;;5084501;28;20428;-84
2022/06/16 01:47:48;;;;;;;1.53;1.37;;;25.10;43.00;;;;;;5082820;28;20416;-85
2022/06/16 01:50:18;;;;;;;1.53;1.43;;;25.00;43.00;;;;;;5081460;28;20424;-84
2022/06/16 01:52:48;;;;;;;1.80;1.70;;;25.00;43.10;;;;;;5074811;28;20458;-85
2022/06/16 01:55:18;;;;;;;1.70;1.60;;;25.00;43.10;;;;;;5083560;28;20423;-84
2022/06/16 01:57:49;;;;;;;1.67;1.50;;;24.90;43.00;;;;;;5083411;28;20439;-84
2022/06/16 02:00:19;;;;;;;1.93;1.67;;;24.90;43.20;;;;;;5084387;28;20489;-84
2022/06/16 02:02:48;;;;;;;1.63;1.53;;;24.90;43.20;;;;;;5084082;28;20480;-85
2022/06/16 02:05:19;;;;;;;2.63;1.70;;;24.90;43.20;;;;;;5084073;28;20532;-84
2022/06/16 02:07:48;;;;;;;2.30;1.40;;;24.90;43.20;;;;;;5080416;28;20525;-84
2022/06/16 02:10:19;;;;;;;1.73;1.63;;;24.90;43.30;;;;;;5077658;28;20445;-86
2022/06/16 02:12:56;;;;;;;1.67;1.57;;;24.80;43.10;;;;;;5083919;28;20436;-84
2022/06/16 02:15:38;;;;;;;2.10;1.70;;;24.80;43.20;;;;;;5083666;28;20445;-85
2022/06/16 02:18:08;;;;;;;2.70;1.70;;;24.80;43.30;;;;;;5082142;28;20444;-84
2022/06/16 02:20:40;;;;;;;2.30;2.00;;;24.80;43.30;;;;;;5075394;28;20471;-85
2022/06/16 02:23:08;;;;;;;2.63;1.60;;;24.70;43.30;;;;;;5073098;28;20561;-85
2022/06/16 02:25:36;;;;;;;2.27;1.97;;;24.70;43.30;;;;;;5065009;28;20545;-85
2022/06/16 02:28:04;;;;;;;2.20;2.00;;;24.70;43.20;;;;;;5073629;28;20503;-85
2022/06/16 02:30:37;;;;;;;1.60;1.50;;;24.70;43.20;;;;;;5073310;28;20498;-85
2022/06/16 02:33:09;;;;;;;1.50;1.40;;;24.60;43.20;;;;;;5073509;28;20466;-85
2022/06/16 02:35:41;;;;;;;5.60;1.60;;;24.60;43.30;;;;;;5073191;28;20446;-85
2022/06/16 02:38:13;;;;;;;2.10;1.77;;;24.60;43.30;;;;;;5073608;28;20469;-85
2022/06/16 02:40:49;;;;;;;2.10;1.73;;;24.60;43.40;;;;;;5072618;28;20531;-85
2022/06/16 02:43:26;;;;;;;1.60;1.50;;;24.50;43.30;;;;;;5067184;28;20508;-85
2022/06/16 02:45:58;;;;;;;5.10;1.80;;;24.50;43.50;;;;;;5053290;28;20533;-85
2022/06/16 02:48:28;;;;;;;1.50;1.40;;;24.50;43.40;;;;;;5052774;28;20484;-85
2022/06/16 02:50:59;;;;;;;1.83;1.73;;;24.50;43.40;;;;;;5053330;28;20452;-85
2022/06/16 02:53:33;;;;;;;1.73;1.60;;;24.50;43.70;;;;;;5053796;28;20437;-85
2022/06/16 02:56:05;;;;;;;1.87;1.60;;;24.50;43.50;;;;;;5053617;28;20480;-86
2022/06/16 02:58:33;;;;;;;2.30;1.63;;;24.40;43.50;;;;;;5057797;28;20549;-85
2022/06/16 03:01:03;;;;;;;1.40;1.40;;;24.50;44.00;;;;;;5065347;28;20524;-85
2022/06/16 03:03:33;;;;;;;2.10;1.50;;;24.40;43.60;;;;;;5073553;28;20483;-84
2022/06/16 03:06:02;;;;;;;1.90;1.80;;;24.40;43.70;;;;;;5073517;28;20413;-85
2022/06/16 03:08:31;;;;;;;2.40;1.40;;;24.40;43.80;;;;;;5073306;28;20420;-85
2022/06/16 03:11:01;;;;;;;1.80;1.70;;;24.40;43.80;;;;;;5083334;28;20460;-85
2022/06/16 03:13:31;;;;;;;1.67;1.50;;;24.40;43.70;;;;;;5074826;28;20445;-85
2022/06/16 03:16:00;;;;;;;1.87;1.70;;;24.30;43.60;;;;;;5075107;28;20450;-85
2022/06/16 03:18:29;;;;;;;1.57;1.47;;;24.30;43.60;;;;;;5069933;28;20411;-84
2022/06/16 03:20:57;;;;;;;3.00;1.80;;;24.30;43.60;;;;;;5077312;28;20443;-85
2022/06/16 03:23:25;;;;;;;1.43;1.33;;;24.30;43.60;;;;;;5077911;28;20453;-85
2022/06/16 03:25:53;;;;;;;2.70;1.67;;;24.30;43.70;;;;;;5077464;28;20480;-85
2022/06/16 03:28:21;;;;;;;1.60;1.50;;;24.20;43.70;;;;;;5076270;28;20496;-84
2022/06/16 03:30:49;;;;;;;1.70;1.60;;;24.30;43.70;;;;;;5076504;28;20413;-84
2022/06/16 03:33:17;;;;;;;1.80;1.50;;;24.20;43.70;;;;;;5076475;28;20435;-85
2022/06/16 03:35:47;;;;;;;1.40;1.30;;;24.20;43.60;;;;;;5070358;28;20497;-85
2022/06/16 03:38:17;;;;;;;1.40;1.30;;;24.20;43.90;;;;;;5078693;28;20503;-85
2022/06/16 03:40:45;;;;;;;1.70;1.60;;;24.20;43.70;;;;;;5077735;28;20950;-85
2022/06/16 03:43:13;;;;;;;1.27;1.27;;;24.20;43.90;;;;;;5078386;28;20443;-85
2022/06/16 03:45:41;;;;;;;1.50;1.40;;;24.20;43.90;;;;;;5077788;28;20420;-85
2022/06/16 03:48:09;;;;;;;1.63;1.40;;;24.20;43.90;;;;;;5078050;28;20468;-85
2022/06/16 03:50:37;;;;;;;1.20;1.10;;;24.20;43.80;;;;;;5076588;28;20481;-86
2022/06/16 03:53:07;;;;;;;1.40;1.30;;;24.10;43.90;;;;;;5071217;28;20501;-86
2022/06/16 03:55:35;;;;;;;1.53;1.37;;;24.20;44.10;;;;;;5073596;28;20441;-85
2022/06/16 03:58:04;;;;;;;1.33;1.33;;;24.20;44.00;;;;;;5076735;28;20529;-86
2022/06/16 04:00:33;;;;;;;1.30;1.20;;;24.10;43.90;;;;;;5075994;28;20427;-86
2022/06/16 04:05:46;;;;;;;1.43;1.23;;;24.10;44.10;;;;;;5075836;28;20448;-86
2022/06/16 04:08:16;;;;;;;2.73;1.30;;;24.10;44.00;;;;;;5075296;28;20503;-86
2022/06/16 04:10:44;;;;;;;1.93;1.50;;;24.10;43.80;;;;;;5067051;28;20437;-85
2022/06/16 04:13:13;;;;;;;1.87;1.43;;;24.10;44.00;;;;;;5075940;28;20554;-86
2022/06/16 04:15:41;;;;;;;5.10;1.50;;;24.10;44.10;;;;;;5075885;28;20492;-86
2022/06/16 04:18:09;;;;;;;1.60;1.40;;;24.10;44.00;;;;;;5076055;28;20423;-86
2022/06/16 04:20:37;;;;;;;1.70;1.60;;;24.10;44.00;;;;;;5075970;28;20536;-86
2022/06/16 04:23:05;;;;;;;1.30;1.20;;;24.10;44.00;;;;;;5075857;28;20531;-86
2022/06/16 04:25:35;;;;;;;1.50;1.40;;;24.10;43.90;;;;;;5074529;28;20461;-86
2022/06/16 04:28:05;;;;;;;1.70;1.53;;;24.10;43.80;;;;;;5067385;28;20506;-86
2022/06/16 04:30:33;;;;;;;2.10;1.70;;;24.10;43.90;;;;;;5075015;28;20413;-86
2022/06/16 04:33:02;;;;;;;1.20;1.13;;;24.10;43.80;;;;;;5075337;28;20437;-86
2022/06/16 04:35:30;;;;;;;1.50;1.40;;;24.10;44.00;;;;;;5075217;28;20445;-85
2022/06/16 04:37:58;;;;;;;2.10;1.47;;;24.10;44.10;;;;;;5075436;28;20537;-86
2022/06/16 04:40:26;;;;;;;1.57;1.37;;;24.10;44.00;;;;;;5075361;28;20495;-86
2022/06/16 04:42:55;;;;;;;2.10;1.53;;;24.10;44.10;;;;;;5070786;28;20548;-86
2022/06/16 04:45:23;;;;;;;1.50;1.40;;;24.10;44.20;;;;;;5069120;28;20442;-86
2022/06/16 04:47:51;;;;;;;1.60;1.50;;;24.10;44.00;;;;;;5074623;28;20447;-86
2022/06/16 04:50:19;;;;;;;2.90;1.30;;;24.00;44.20;;;;;;5074653;28;20501;-86
2022/06/16 04:52:48;;;;;;;2.10;1.53;;;24.10;44.20;;;;;;5074885;28;20436;-86
2022/06/16 04:55:16;;;;;;;1.67;1.57;;;24.00;44.00;;;;;;5074396;28;20519;-86
2022/06/16 04:57:44;;;;;;;2.77;1.57;;;24.00;44.10;;;;;;5075068;28;20528;-86
2022/06/16 05:00:16;;;;;;;1.77;1.40;;;24.00;44.20;;;;;;5068321;28;20453;-86
2022/06/16 05:02:52;;;;;;;1.57;1.33;;;24.00;44.10;;;;;;5074269;28;20476;-86
2022/06/16 05:05:21;;;;;;;2.90;1.73;;;24.10;44.40;;;;;;5074328;28;20416;-86
2022/06/16 05:07:49;;;;;;;2.57;1.40;;;24.10;44.20;;;;;;5074898;28;20456;-86
2022/06/16 05:10:17;;;;;;;1.50;1.40;;;24.10;44.30;;;;;;5074389;28;20450;-86
2022/06/16 05:12:45;;;;;;;1.47;1.37;;;24.10;44.20;;;;;;5074570;28;20531;-85
2022/06/16 05:15:15;;;;;;;1.73;1.63;;;24.10;44.30;;;;;;5075395;28;20420;-86
2022/06/16 05:17:43;;;;;;;1.70;1.60;;;24.10;44.20;;;;;;5073589;28;20454;-86
2022/06/16 05:20:12;;;;;;;4.30;1.50;;;24.10;44.20;;;;;;5068358;28;20529;-86
2022/06/16 05:22:40;;;;;;;2.50;1.40;;;24.20;44.20;;;;;;5074276;28;20494;-86
2022/06/16 05:25:08;;;;;;;2.20;1.57;;;24.20;44.40;;;;;;5074393;28;20532;-86
2022/06/16 05:27:36;;;;;;;1.10;1.10;;;24.20;44.30;;;;;;5075225;28;20427;-86
2022/06/16 05:30:07;;;;;;;1.67;1.57;;;24.20;44.30;;;;;;5074438;28;20503;-86
2022/06/16 05:32:37;;;;;;;1.33;1.23;;;24.20;44.30;;;;;;5074836;28;20470;-86
2022/06/16 05:35:05;;;;;;;1.33;1.33;;;24.30;44.40;;;;;;5069661;28;20512;-86
2022/06/16 05:37:34;;;;;;;1.30;1.20;;;24.20;44.30;;;;;;5070813;28;20528;-86
2022/06/16 05:40:02;;;;;;;1.60;1.50;;;24.30;44.50;;;;;;5073940;28;20442;-86
2022/06/16 05:42:30;;;;;;;2.40;1.57;;;24.30;44.60;;;;;;5073577;28;20472;-86
2022/06/16 05:44:58;;;;;;;1.40;1.30;;;24.30;44.80;;;;;;5073862;28;20445;-86
2022/06/16 05:47:26;;;;;;;1.80;1.40;;;24.30;44.70;;;;;;5076034;28;20480;-86
2022/06/16 05:49:55;;;;;;;1.50;1.40;;;24.30;44.70;;;;;;5077817;28;20476;-86
2022/06/16 05:52:24;;;;;;;1.63;1.40;;;24.40;44.90;;;;;;5068043;28;20481;-86
2022/06/16 05:54:54;;;;;;;2.70;1.30;;;24.40;44.70;;;;;;5074068;28;20504;-86
2022/06/16 05:57:22;;;;;;;1.30;1.30;;;24.40;44.80;;;;;;5074032;28;20424;-85
2022/06/16 05:59:50;;;;;;;2.17;1.50;;;24.50;45.00;;;;;;5074300;28;20419;-86
2022/06/16 06:02:19;;;;;;;1.30;1.17;;;24.50;44.70;;;;;;5074315;28;20440;-85
2022/06/16 06:04:48;;;;;;;1.70;1.23;;;24.60;44.70;;;;;;5077755;28;20442;-86
2022/06/16 06:07:18;;;;;;;2.13;1.50;;;24.60;44.60;;;;;;5089437;28;20464;-86
2022/06/16 06:18:10;;;;;;;3.30;1.43;;;24.70;44.80;;;;;;5055598;28;20440;-85
2022/06/16 06:20:38;;;;;;;2.43;1.43;;;24.80;44.90;;;;;;5058942;28;20515;-85
2022/06/16 06:23:07;;;;;;;1.73;1.63;;;24.80;45.00;;;;;;5067082;28;20450;-86
2022/06/16 06:25:35;;;;;;;2.30;1.20;;;24.80;45.40;;;;;;5080601;28;20445;-85
2022/06/16 06:28:03;;;;;;;3.93;1.33;;;24.90;45.10;;;;;;5079127;28;20408;-86
2022/06/16 06:30:33;;;;;;;4.30;1.50;;;24.90;44.90;;;;;;5076540;28;20501;-86
2022/06/16 06:33:01;;;;;;;3.00;1.70;;;24.90;45.00;;;;;;5075778;28;20436;-85
2022/06/16 06:35:29;;;;;;;1.93;1.50;;;24.90;45.10;;;;;;5075007;28;20401;-86
2022/06/16 06:37:58;;;;;;;2.50;1.30;;;25.00;45.00;;;;;;5075809;28;20515;-86
2022/06/16 06:40:29;;;;;;;3.63;1.40;;;25.10;44.90;;;;;;5067430;28;20481;-87
2022/06/16 06:42:57;;;;;;;2.70;1.20;;;25.10;45.10;;;;;;5075556;28;20561;-85
2022/06/16 06:45:25;;;;;;;2.17;1.30;;;25.10;44.60;;;;;;5076195;28;20447;-86
2022/06/16 06:47:53;;;;;;;3.77;1.30;;;25.20;45.00;;;;;;5077073;28;20447;-86
2022/06/16 06:50:23;;;;;;;1.73;1.00;;;25.20;44.60;;;;;;5075876;28;20487;-85
2022/06/16 06:52:51;;;;;;;1.33;1.20;;;25.30;44.60;;;;;;5077018;28;20545;-86
2022/06/16 06:55:19;;;;;;;1.30;1.17;;;25.30;44.40;;;;;;5069573;28;20550;-86
2022/06/16 06:57:49;;;;;;;2.60;1.20;;;25.20;44.60;;;;;;5074536;28;20437;-86
2022/06/16 07:00:18;;;;;;;1.87;1.17;;;25.40;44.50;;;;;;5076178;28;20397;-85
2022/06/16 07:02:46;;;;;;;2.70;1.50;;;25.40;44.40;;;;;;5076540;28;20449;-85
2022/06/16 07:05:14;;;;;;;1.53;1.10;;;25.60;44.50;;;;;;5076176;28;20532;-87
2022/06/16 07:07:46;;;;;;;1.27;1.17;;;25.60;44.20;;;;;;5078698;28;20416;-86
2022/06/16 07:10:15;;;;;;;1.63;1.00;;;25.70;44.30;;;;;;5079921;28;20465;-86
2022/06/16 07:12:44;;;;;;;1.23;1.10;;;25.70;43.70;;;;;;5080390;28;20444;-86
2022/06/16 07:15:14;;;;;;;1.77;1.17;;;25.70;43.90;;;;;;5073403;28;20488;-86
2022/06/16 07:17:42;;;;;;;1.07;1.07;;;25.80;43.80;;;;;;5061346;28;20448;-85
2022/06/16 07:20:13;;;;;;;1.20;1.10;;;25.90;43.60;;;;;;5059635;28;20421;-85
2022/06/16 07:22:41;;;;;;;2.77;1.27;;;26.00;43.50;;;;;;5060704;28;20497;-85
2022/06/16 07:25:09;;;;;;;1.80;1.10;;;26.10;43.20;;;;;;5062358;28;20443;-85
2022/06/16 07:27:37;;;;;;;1.37;1.27;;;26.20;43.20;;;;;;5062583;28;20444;-85
2022/06/16 07:30:07;;;;;;;1.33;1.20;;;26.20;43.10;;;;;;5075114;28;20471;-85
2022/06/16 07:32:37;;;;;;;1.10;1.10;;;26.30;43.00;;;;;;5078292;28;20463;-85
2022/06/16 07:35:05;;;;;;;1.10;1.00;;;26.30;43.00;;;;;;5082497;28;20488;-85
2022/06/16 07:37:33;;;;;;;1.67;1.23;;;26.30;42.80;;;;;;5081804;28;20422;-85
2022/06/16 07:40:01;;;;;;;1.80;1.10;;;26.30;42.80;;;;;;5082721;28;20447;-85
2022/06/16 07:42:29;;;;;;;2.77;1.27;;;26.30;42.70;;;;;;5082351;28;20492;-85
2022/06/16 07:44:57;;;;;;;1.10;1.00;;;26.30;42.90;;;;;;5080670;28;20476;-85
2022/06/16 07:47:25;;;;;;;3.13;1.13;;;26.40;42.80;;;;;;5065142;28;20854;-85
2022/06/16 07:49:55;;;;;;;3.07;1.03;;;26.50;42.60;;;;;;5060831;28;20478;-85
2022/06/16 07:52:23;;;;;;;1.43;1.33;;;26.50;42.70;;;;;;5062063;28;20466;-85
2022/06/16 07:54:51;;;;;;;2.23;1.20;;;26.50;42.70;;;;;;5058495;28;20496;-85
2022/06/16 07:57:19;;;;;;;3.17;0.90;;;26.60;43.00;;;;;;5057549;28;20459;-84
2022/06/16 07:59:54;;;;;;;2.20;1.10;;;26.70;42.40;;;;;;5063265;28;20456;-84
2022/06/16 08:02:22;;;;;;;1.07;1.00;;;26.70;42.50;;;;;;5069405;28;20545;-86
2022/06/16 08:04:51;;;;;;;3.17;1.03;;;26.90;42.40;;;;;;5071013;28;20477;-84
2022/06/16 08:07:20;;;;;;;1.23;0.87;;;26.90;42.30;;;;;;5074543;28;21020;-84
2022/06/16 08:09:48;;;;;;;1.33;1.13;;;27.00;42.40;;;;;;5071467;28;20472;-85
2022/06/16 08:12:17;;;;;;;1.57;1.00;;;27.00;42.10;;;;;;5080419;28;20760;-85
2022/06/16 08:14:46;;;;;;;1.63;1.10;;;27.10;42.00;;;;;;5081264;28;20457;-84
2022/06/16 08:17:15;;;;;;;1.67;1.20;;;27.20;42.50;;;;;;5068288;28;20432;-84
2022/06/16 08:19:43;;;;;;;1.00;0.90;;;27.20;42.00;;;;;;5071182;28;20502;-84
2022/06/16 08:22:12;;;;;;;0.90;0.90;;;27.30;42.00;;;;;;5079449;28;20482;-85
2022/06/16 08:24:43;;;;;;;1.10;1.00;;;27.40;42.00;;;;;;5080503;28;20473;-85
2022/06/16 08:27:11;;;;;;;1.73;1.30;;;27.50;41.80;;;;;;5082246;28;20449;-85
2022/06/16 08:40:19;;;;;;;1.93;0.87;;;27.60;41.80;;;;;;5107252;27;20568;-84
2022/06/16 08:42:50;;;;;;;1.87;1.00;;;28.10;40.90;;;;;;5083583;28;20830;-84
2022/06/16 08:45:27;;;;;;;1.20;1.10;;;28.00;40.90;;;;;;5080810;28;20446;-85
2022/06/16 08:48:02;;;;;;;2.60;0.90;;;28.10;40.90;;;;;;5074672;28;20984;-85
2022/06/16 08:50:33;;;;;;;3.33;1.17;;;28.20;40.70;;;;;;5091403;28;20887;-87
2022/06/16 08:53:08;;;;;;;4.10;1.00;;;28.20;40.80;;;;;;5085170;28;20469;-85
2022/06/16 08:55:39;;;;;;;3.00;1.27;;;28.30;40.70;;;;;;5075037;28;20473;-85
2022/06/16 08:58:14;;;;;;;0.80;0.80;;;28.40;40.50;;;;;;5075175;28;20495;-85
2022/06/16 09:00:45;;;;;;;1.07;0.97;;;28.50;40.40;;;;;;5081640;28;20479;-85
2022/06/16 09:03:20;;;;;;;0.90;0.90;;;28.50;40.40;;;;;;5074090;28;20469;-86
2022/06/16 09:05:51;;;;;;;0.97;0.87;;;28.60;40.30;;;;;;5094053;28;20448;-85
2022/06/16 09:08:35;;;;;;;1.00;1.00;;;28.70;40.20;;;;;;5090690;28;20492;-86
2022/06/16 09:11:10;;;;;;;0.90;0.90;;;28.80;40.00;;;;;;5076204;28;20448;-85
2022/06/16 09:13:54;;;;;;;3.77;1.00;;;28.90;39.90;;;;;;5086978;28;20440;-88
2022/06/16 09:16:28;;;;;;;1.20;0.83;;;29.00;39.80;;;;;;5099531;28;20457;-89
2022/06/16 09:19:16;;;;;;;1.00;0.80;;;29.10;39.70;;;;;;5100842;28;20457;-86
2022/06/16 09:21:48;;;;;;;1.67;1.00;;;29.10;39.50;;;;;;5102156;28;20477;-87
2022/06/16 09:24:24;;;;;;;1.03;0.90;;;29.20;39.50;;;;;;5094793;28;20461;-85
2022/06/16 09:26:56;;;;;;;0.77;0.77;;;29.30;39.40;;;;;;5098695;28;20449;-86
2022/06/16 09:29:27;;;;;;;1.37;1.20;;;29.40;39.20;;;;;;5097095;28;20932;-85
2022/06/16 09:31:57;;;;;;;1.47;0.90;;;29.50;39.10;;;;;;5098825;28;20484;-85
2022/06/16 09:34:28;;;;;;;0.97;0.80;;;29.60;39.10;;;;;;5103257;28;20431;-85
2022/06/16 09:36:57;;;;;;;0.80;0.80;;;29.70;38.90;;;;;;5100025;28;20448;-87
2022/06/16 09:39:28;;;;;;;4.93;0.90;;;29.80;38.70;;;;;;5084941;28;20447;-86
2022/06/16 09:45:17;;;;;;;0.80;0.70;;;29.90;38.50;;;;;;5066661;28;20503;-86
2022/06/16 09:47:47;;;;;;;1.53;0.90;;;30.00;38.30;;;;;;5073390;28;20446;-86
2022/06/16 09:50:22;;;;;;;2.50;1.20;;;30.10;38.20;;;;;;5077836;28;20500;-86
2022/06/16 09:52:53;;;;;;;1.77;0.90;;;30.20;37.90;;;;;;5086785;28;20489;-85
2022/06/16 09:55:25;;;;;;;1.33;0.77;;;30.20;37.80;;;;;;5082730;28;20476;-85
2022/06/16 09:57:56;;;;;;;1.73;0.90;;;30.30;37.80;;;;;;5072437;28;20493;-86
2022/06/16 10:00:25;;;;;;;3.00;0.90;;;30.50;37.80;;;;;;5064374;28;20438;-85
2022/06/16 10:02:54;;;;;;;0.80;0.80;;;30.60;37.60;;;;;;5062700;28;20887;-85
2022/06/16 10:05:27;;;;;;;1.57;0.90;;;30.60;37.40;;;;;;5076089;28;20434;-86
2022/06/16 10:07:58;;;;;;;0.90;0.90;;;30.70;37.40;;;;;;5066647;28;20452;-85
2022/06/16 10:10:29;;;;;;;1.63;0.80;;;30.80;37.20;;;;;;5063556;28;20469;-87
2022/06/16 10:13:01;;;;;;;0.90;0.90;;;30.90;37.00;;;;;;5077856;28;20462;-85
2022/06/16 10:15:33;;;;;;;3.87;1.23;;;30.90;36.90;;;;;;5060047;28;20560;-85
2022/06/16 10:18:01;;;;;;;0.87;0.70;;;31.00;37.00;;;;;;5055994;28;21008;-85
2022/06/16 10:20:29;;;;;;;1.20;0.80;;;31.20;36.90;;;;;;5057618;28;20553;-86
2022/06/16 10:22:59;;;;;;;1.00;0.90;;;31.20;37.20;;;;;;5054710;28;20511;-85
2022/06/16 10:25:29;;;;;;;1.90;1.00;;;31.30;36.50;;;;;;5056126;28;20497;-86
2022/06/16 10:28:11;;;;;;;1.27;0.83;;;31.30;36.40;;;;;;5075041;28;20441;-85
2022/06/16 10:30:40;;;;;;;1.20;1.00;;;31.40;36.30;;;;;;5071626;28;20472;-85
2022/06/16 10:33:18;;;;;;;2.83;0.77;;;31.50;36.10;;;;;;5073534;28;20548;-86
2022/06/16 10:35:53;;;;;;;1.90;0.80;;;31.60;36.00;;;;;;5073607;28;20532;-85
2022/06/16 10:38:22;;;;;;;0.80;0.80;;;31.70;35.90;;;;;;5074438;28;20473;-85
2022/06/16 10:40:50;;;;;;;1.37;0.90;;;31.70;35.70;;;;;;5071160;28;20500;-85
2022/06/16 10:43:40;;;;;;;1.53;0.70;;;31.80;35.60;;;;;;5063838;28;20450;-85
2022/06/16 10:46:11;;;;;;;1.13;1.00;;;31.80;35.70;;;;;;5073897;28;20451;-85
2022/06/16 10:48:40;;;;;;;2.70;0.80;;;31.90;35.40;;;;;;5064387;28;20530;-85
2022/06/16 10:51:12;;;;;;;0.70;0.70;;;32.10;35.50;;;;;;5075132;28;20481;-85
2022/06/16 10:53:41;;;;;;;1.10;0.80;;;32.10;35.10;;;;;;5054763;28;20438;-86
2022/06/16 10:56:11;;;;;;;0.93;0.83;;;32.10;35.10;;;;;;5054056;28;20469;-85
2022/06/16 10:58:54;;;;;;;3.43;0.83;;;32.20;35.10;;;;;;5066002;28;20462;-85
2022/06/16 11:01:24;;;;;;;0.90;0.80;;;32.30;34.80;;;;;;5067420;28;20550;-85
2022/06/16 11:03:54;;;;;;;1.40;0.80;;;32.30;34.80;;;;;;5067963;28;20470;-86
2022/06/16 11:06:30;;;;;;;1.00;0.78;;;32.40;34.60;;;;;;3879313;28;10023401;-87
2022/06/16 11:09:00;;;;;;;2.30;0.90;;;32.50;34.40;;;;;;4529790;28;10001724;-84
2022/06/16 11:11:39;;;;;;;1.90;0.90;;;32.60;34.20;;;;;;5036644;28;20550;-88
2022/06/16 11:14:13;;;;;;;1.23;0.90;;;32.60;34.50;;;;;;5013490;28;20442;-86
2022/06/16 11:16:46;;;;;;;1.67;0.90;;;32.70;34.20;;;;;;5023435;28;20513;-86
2022/06/16 11:19:24;;;;;;;0.70;0.70;;;32.80;34.10;;;;;;5033114;28;20466;-87
2022/06/16 11:21:52;;;;;;;0.70;0.70;;;32.80;33.90;;;;;;5033818;28;20579;-86
2022/06/16 11:24:26;;;;;;;0.97;0.87;;;32.90;33.70;;;;;;5029287;28;21034;-86
2022/06/16 11:27:02;;;;;;;2.20;0.60;;;33.00;33.80;;;;;;5032209;28;20447;-87
2022/06/16 11:29:33;;;;;;;0.80;0.80;;;33.10;33.80;;;;;;5030161;28;20444;-89
2022/06/16 11:32:11;;;;;;;0.97;0.80;;;33.10;33.70;;;;;;5020360;28;20466;-89
2022/06/16 11:34:41;;;;;;;1.00;1.00;;;33.20;33.50;;;;;;5034510;28;20455;-89
2022/06/16 11:37:45;;;;;;;2.53;0.90;;;33.30;33.50;;;;;;5032468;28;20543;-89
2022/06/16 11:40:24;;;;;;;1.67;0.93;;;33.30;33.10;;;;;;5010029;28;20482;-90
2022/06/16 12:04:32;;;;;;;2.57;0.90;;;33.90;32.70;;;;;;4913523;29;20465;-87
2022/06/16 12:07:17;;;;;;;1.10;1.00;;;34.00;32.50;;;;;;4917040;29;20437;-86
2022/06/16 12:09:48;;;;;;;4.17;1.10;;;33.80;32.70;;;;;;4926602;29;20493;-87
2022/06/16 12:12:22;;;;;;;4.63;1.00;;;33.70;32.80;;;;;;4943096;29;20475;-85
2022/06/16 12:14:52;;;;;;;1.23;1.00;;;33.60;32.90;;;;;;4945566;29;20499;-86
2022/06/16 12:17:24;;;;;;;4.33;0.97;;;33.50;33.10;;;;;;4940823;29;20482;-86
2022/06/16 12:19:58;;;;;;;7.33;1.40;;;33.30;33.20;;;;;;4940347;29;20486;-88
2022/06/16 12:22:49;;;;;;;1.20;1.00;;;33.20;33.20;;;;;;4934257;29;20460;-89
2022/06/16 12:25:23;;;;;;;3.13;1.00;;;33.10;33.50;;;;;;4925907;29;20453;-88
2022/06/16 12:27:53;;;;;;;4.40;0.87;;;33.10;33.40;;;;;;4917271;29;20463;-88
2022/06/16 12:30:24;;;;;;;1.57;1.10;;;33.00;33.60;;;;;;4931764;29;20443;-88
2022/06/16 12:32:58;;;;;;;2.03;1.03;;;33.10;33.80;;;;;;4937616;29;20523;-87
2022/06/16 12:35:32;;;;;;;4.47;1.00;;;33.30;33.50;;;;;;4936998;29;20480;-88
2022/06/16 12:38:02;;;;;;;3.80;0.90;;;33.40;33.20;;;;;;4936356;29;20489;-88
2022/06/16 12:40:32;;;;;;;0.80;0.80;;;33.40;33.00;;;;;;4934263;29;20570;-88
2022/06/16 12:43:02;;;;;;;1.13;1.03;;;33.30;33.10;;;;;;4935185;29;20468;-90
2022/06/16 12:45:33;;;;;;;3.50;1.23;;;33.30;33.20;;;;;;4926004;29;20480;-92
2022/06/16 12:48:06;;;;;;;1.97;1.00;;;33.40;33.10;;;;;;4917916;29;20453;-91
2022/06/16 12:50:40;;;;;;;1.97;1.00;;;33.50;32.90;;;;;;4935488;29;20499;-86
2022/06/16 12:57:09;;;;;;;1.27;1.00;;;33.70;33.00;;;;;;4935287;29;20534;-89
2022/06/16 12:59:45;;;;;;;2.30;0.80;;;33.80;32.90;;;;;;4934720;29;20490;-86
2022/06/16 13:02:15;;;;;;;2.00;0.80;;;33.80;32.90;;;;;;4925788;29;20480;-89
2022/06/16 13:04:44;;;;;;;1.10;1.00;;;33.90;32.90;;;;;;4915560;29;20476;-91
2022/06/16 13:07:15;;;;;;;1.83;0.80;;;33.90;32.60;;;;;;4917840;29;20456;-89
2022/06/16 13:09:43;;;;;;;3.43;1.00;;;33.80;32.90;;;;;;4915906;29;20460;-87
2022/06/16 13:12:17;;;;;;;1.40;0.80;;;33.80;33.00;;;;;;4915369;29;20472;-88
2022/06/16 13:14:50;;;;;;;0.90;0.80;;;33.80;32.80;;;;;;4929796;29;20535;-87
2022/06/16 13:17:18;;;;;;;1.27;0.70;;;33.70;32.80;;;;;;4938169;29;20478;-89
2022/06/16 13:19:47;;;;;;;1.23;0.87;;;33.50;32.90;;;;;;4931813;29;20496;-89
2022/06/16 13:22:22;;;;;;;3.07;0.90;;;33.50;33.10;;;;;;4919772;29;20473;-88
2022/06/16 13:24:53;;;;;;;3.80;0.80;;;33.60;33.10;;;;;;4919982;29;20480;-88
2022/06/16 13:27:24;;;;;;;2.20;1.10;;;33.70;32.90;;;;;;4932122;29;20983;-88
2022/06/16 13:30:12;;;;;;;1.30;0.90;;;33.60;33.50;;;;;;4937118;29;20900;-88
2022/06/16 13:32:41;;;;;;;3.17;1.00;;;33.50;33.00;;;;;;4937843;29;20556;-88
2022/06/16 13:35:31;;;;;;;2.30;0.87;;;33.50;33.30;;;;;;4935781;29;20448;-88
2022/06/16 13:38:25;;;;;;;1.80;0.87;;;33.40;33.10;;;;;;4936868;29;20448;-88
2022/06/16 13:41:26;;;;;;;1.13;1.00;;;33.50;33.20;;;;;;4937828;29;20480;-88
2022/06/16 13:44:14;;;;;;;1.40;0.90;;;33.50;33.00;;;;;;4938010;29;20470;-87
2022/06/16 13:47:23;;;;;;;1.80;1.20;;;33.60;33.00;;;;;;4918015;29;20462;-87
2022/06/16 13:50:00;;;;;;;2.40;0.70;;;33.60;33.00;;;;;;4900732;29;20460;-87
2022/06/16 13:52:30;;;;;;;1.10;0.90;;;33.60;33.20;;;;;;4936820;29;20468;-88
2022/06/16 13:55:25;;;;;;;0.80;0.80;;;33.60;33.10;;;;;;4937854;29;20480;-87
2022/06/16 13:58:21;;;;;;;1.00;0.90;;;33.70;33.30;;;;;;4920014;29;20504;-88
2022/06/16 14:01:13;;;;;;;1.10;0.90;;;33.70;33.10;;;;;;4925669;29;20558;-88